Time;durP1;ratioP1;P1;durP2;ratioP2;P2;SDS_P1;SDS_P2;PMS_P1;PMS_P2;Temp;Humidity;BMP_temperature;BMP_pressure;BME280_temperature;BME280_humidity;BME280_pressure;Samples;Min_cycle;Max_cycle;Signal;HPM_P1;HPM_P2
2021/04/18 00:00:26;;;;;;;32.63;22.87;;;;;;;9.70;83.13;100567.38;2609509;90;21180;-62
2021/04/18 00:04:30;;;;;;;42.95;24.95;;;;;;;9.69;83.29;100570.50;2654824;88;21137;-60
2021/04/18 00:08:36;;;;;;;37.98;27.37;;;;;;;9.73;83.29;100576.45;2606158;91;21222;-60
2021/04/18 00:12:39;;;;;;;30.02;21.40;;;;;;;9.67;83.12;100566.28;2644794;88;21161;-60
2021/04/18 00:16:42;;;;;;;34.60;23.95;;;;;;;9.65;83.42;100567.72;2648796;88;21207;-60
2021/04/18 00:20:45;;;;;;;31.17;24.50;;;;;;;9.67;83.63;100572.92;2647380;88;21177;-60
2021/04/18 00:24:48;;;;;;;33.75;22.10;;;;;;;9.72;83.87;100566.78;2640349;88;21227;-60
2021/04/18 00:28:51;;;;;;;34.83;24.67;;;;;;;9.78;83.61;100566.32;2657229;88;21170;-61
2021/04/18 00:32:56;;;;;;;27.42;20.40;;;;;;;9.88;83.44;100561.66;2644991;88;21599;-60
2021/04/18 00:36:59;;;;;;;36.47;24.23;;;;;;;9.86;83.42;100567.95;2652215;88;21166;-61
2021/04/18 00:41:03;;;;;;;30.77;24.60;;;;;;;9.94;83.49;100564.72;2676528;88;21559;-61
2021/04/18 00:45:09;;;;;;;33.15;22.35;;;;;;;9.99;83.23;100567.01;2681563;88;21141;-60
2021/04/18 00:49:11;;;;;;;31.50;23.52;;;;;;;10.03;83.16;100559.20;2642071;90;21116;-61
2021/04/18 00:53:14;;;;;;;33.40;24.02;;;;;;;10.04;82.73;100563.55;2639679;90;21574;-61
2021/04/18 00:57:18;;;;;;;26.75;20.40;;;;;;;9.95;82.34;100562.42;2657403;88;21565;-60
2021/04/18 01:01:21;;;;;;;29.95;21.45;;;;;;;9.83;82.59;100560.20;2684293;88;21128;-61
2021/04/18 01:05:25;;;;;;;37.93;24.05;;;;;;;9.77;83.16;100557.98;2657263;89;21122;-61
2021/04/18 01:09:30;;;;;;;33.98;23.38;;;;;;;9.77;83.55;100555.33;2683171;88;21128;-62
2021/04/18 01:13:33;;;;;;;38.95;25.70;;;;;;;9.77;83.28;100543.38;2641307;90;21179;-60
2021/04/18 01:17:37;;;;;;;41.85;22.27;;;;;;;9.71;83.31;100539.36;2611533;91;21134;-62
2021/04/18 01:21:41;;;;;;;37.13;24.18;;;;;;;9.66;83.27;100530.89;2641515;90;21123;-63
2021/04/18 01:25:44;;;;;;;36.65;24.05;;;;;;;9.58;83.58;100534.61;2641388;90;21234;-60
2021/04/18 01:29:47;;;;;;;33.25;22.15;;;;;;;9.57;83.60;100531.59;2644542;90;21597;-61
2021/04/18 01:33:51;;;;;;;34.15;25.35;;;;;;;9.54;83.60;100529.99;2645719;90;21569;-61
2021/04/18 01:37:55;;;;;;;24.87;18.67;;;;;;;9.50;83.77;100522.36;2645908;90;21553;-60
2021/04/18 01:41:58;;;;;;;34.53;23.60;;;;;;;9.46;83.40;100538.16;2643923;90;21139;-63
2021/04/18 01:46:01;;;;;;;30.97;19.25;;;;;;;9.22;83.59;100541.14;2611393;91;21162;-61
2021/04/18 01:50:07;;;;;;;34.00;21.80;;;;;;;9.07;84.19;100537.80;2641341;90;21223;-61
2021/04/18 01:54:10;;;;;;;30.85;22.48;;;;;;;9.04;84.54;100541.14;2611646;91;21154;-61
2021/04/18 01:58:14;;;;;;;34.83;22.50;;;;;;;8.99;84.77;100546.30;2641559;90;21211;-61
2021/04/18 02:02:17;;;;;;;31.40;21.62;;;;;;;8.93;84.88;100556.50;2611342;91;21146;-61
2021/04/18 02:06:21;;;;;;;34.00;23.75;;;;;;;8.89;85.26;100555.89;2641966;90;21168;-61
2021/04/18 02:10:26;;;;;;;27.05;18.42;;;;;;;8.92;85.65;100543.73;2641741;90;21172;-60
2021/04/18 02:14:29;;;;;;;33.98;25.02;;;;;;;8.99;85.58;100537.02;2636294;90;21198;-61
2021/04/18 02:18:32;;;;;;;27.67;20.55;;;;;;;9.06;86.00;100520.18;2636213;90;21570;-62
2021/04/18 02:22:37;;;;;;;37.33;20.57;;;;;;;9.19;85.98;100511.34;2636569;90;21174;-61
2021/04/18 02:26:40;;;;;;;28.05;20.65;;;;;;;9.21;84.77;100516.89;2636730;90;21202;-61
2021/04/18 02:30:44;;;;;;;30.17;22.40;;;;;;;9.11;84.83;100516.71;2663808;89;21514;-61
2021/04/18 02:34:50;;;;;;;32.60;23.90;;;;;;;9.08;85.06;100516.94;2667776;89;21138;-60
2021/04/18 02:38:52;;;;;;;27.67;22.32;;;;;;;9.14;85.58;100524.48;2667458;89;21565;-61
2021/04/18 02:42:56;;;;;;;32.75;22.37;;;;;;;9.32;85.40;100519.26;2667353;89;21169;-62
2021/04/18 02:46:59;;;;;;;28.83;21.37;;;;;;;9.27;84.54;100519.13;2658359;89;21576;-61
2021/04/18 02:51:02;;;;;;;32.50;21.70;;;;;;;9.14;84.66;100511.20;2654425;89;21166;-61
2021/04/18 02:55:07;;;;;;;38.67;27.25;;;;;;;9.05;84.91;100509.20;2654641;89;21548;-61
2021/04/18 02:59:11;;;;;;;35.63;23.30;;;;;;;9.07;85.45;100497.99;2654252;89;21158;-61
2021/04/18 03:03:14;;;;;;;37.90;24.35;;;;;;;9.14;85.17;100491.30;2654567;89;21205;-61
2021/04/18 03:07:18;;;;;;;38.42;24.63;;;;;;;9.19;85.30;100485.64;2654366;89;21154;-61
2021/04/18 03:11:21;;;;;;;32.90;22.35;;;;;;;9.20;84.69;100482.52;2654275;89;21130;-60
2021/04/18 03:15:25;;;;;;;36.70;24.87;;;;;;;9.08;84.47;100485.09;2654493;89;21185;-61
2021/04/18 03:19:27;;;;;;;36.30;23.83;;;;;;;9.00;84.63;100485.64;2654484;89;21574;-60
2021/04/18 03:23:31;;;;;;;27.37;22.60;;;;;;;8.91;84.82;100484.13;2654523;89;21131;-62
2021/04/18 03:27:35;;;;;;;29.12;20.32;;;;;;;8.89;85.20;100482.07;2653595;89;21183;-61
2021/04/18 03:31:38;;;;;;;29.23;24.52;;;;;;;8.89;85.48;100473.64;2636903;89;21138;-62
2021/04/18 03:35:41;;;;;;;34.58;23.12;;;;;;;8.96;85.60;100471.41;2637724;89;21137;-61
2021/04/18 03:39:44;;;;;;;36.40;25.57;;;;;;;9.02;85.45;100473.61;2637025;90;21178;-61
2021/04/18 03:43:47;;;;;;;35.05;23.95;;;;;;;9.16;85.83;100474.41;2637160;89;21122;-62
2021/04/18 03:47:50;;;;;;;36.20;28.40;;;;;;;9.33;85.60;100471.84;2637354;90;21130;-60
2021/04/18 03:51:54;;;;;;;39.27;25.05;;;;;;;9.44;84.90;100473.23;2636820;90;21535;-61
2021/04/18 03:55:57;;;;;;;34.15;25.32;;;;;;;9.48;84.33;100466.73;2637403;90;21129;-63
2021/04/18 04:00:00;;;;;;;32.95;22.67;;;;;;;9.51;84.20;100473.59;2637196;89;21182;-61
2021/04/18 04:04:03;;;;;;;30.95;22.50;;;;;;;9.56;83.94;100468.31;2637670;89;21134;-62
2021/04/18 04:08:07;;;;;;;39.15;24.63;;;;;;;9.65;83.91;100472.59;2637417;89;21560;-61
2021/04/18 04:12:13;;;;;;;31.90;23.65;;;;;;;9.60;82.93;100463.63;2637097;90;21616;-61
2021/04/18 04:16:16;;;;;;;37.80;23.05;;;;;;;9.44;82.73;100461.28;2637234;89;21165;-61
2021/04/18 04:20:20;;;;;;;37.15;26.15;;;;;;;9.24;83.06;100462.28;2637131;88;21182;-62
2021/04/18 04:24:24;;;;;;;60.95;43.98;;;;;;;9.18;83.61;100469.34;2636671;89;21254;-61
2021/04/18 04:28:27;;;;;;;68.75;49.15;;;;;;;9.09;83.81;100471.36;2626812;90;21162;-60
2021/04/18 04:32:31;;;;;;;38.88;27.45;;;;;;;9.06;83.90;100472.91;2638560;90;21156;-62
2021/04/18 04:36:34;;;;;;;37.80;25.92;;;;;;;9.03;84.33;100463.82;2641950;90;21140;-62
2021/04/18 04:40:37;;;;;;;34.50;25.23;;;;;;;9.05;84.69;100460.60;2642006;90;21165;-62
2021/04/18 04:44:40;;;;;;;39.03;25.85;;;;;;;9.11;85.05;100462.80;2642181;90;21176;-61
2021/04/18 04:48:44;;;;;;;43.85;39.38;;;;;;;9.20;84.83;100459.95;2642007;90;21166;-62
2021/04/18 04:52:48;;;;;;;41.68;27.05;;;;;;;9.32;84.92;100463.52;2642159;90;21150;-61
2021/04/18 04:56:51;;;;;;;32.42;23.50;;;;;;;9.39;84.08;100460.30;2642017;90;21154;-61
2021/04/18 05:00:54;;;;;;;34.83;26.05;;;;;;;9.34;83.87;100462.45;2642472;90;21145;-62
2021/04/18 05:04:57;;;;;;;30.08;21.42;;;;;;;9.25;84.07;100467.95;2641960;90;21579;-61
2021/04/18 05:09:00;;;;;;;29.63;21.52;;;;;;;9.26;84.41;100470.97;2650089;89;21141;-61
2021/04/18 05:13:03;;;;;;;28.70;23.20;;;;;;;9.39;84.92;100483.33;2670121;89;21118;-61
2021/04/18 05:17:06;;;;;;;32.13;23.55;;;;;;;9.57;84.72;100497.89;2649538;89;21157;-62
2021/04/18 05:21:11;;;;;;;30.00;21.50;;;;;;;9.63;83.77;100499.25;2642366;90;21161;-61
2021/04/18 05:25:15;;;;;;;34.15;22.58;;;;;;;9.77;84.28;100489.41;2642075;90;21544;-61
2021/04/18 05:29:19;;;;;;;32.83;22.25;;;;;;;9.80;83.44;100484.69;2654392;88;21141;-61
2021/04/18 05:33:23;;;;;;;33.55;22.52;;;;;;;9.82;83.58;100477.45;2667157;89;21181;-61
2021/04/18 05:37:26;;;;;;;34.25;24.37;;;;;;;9.90;83.81;100477.37;2667289;89;21198;-61
2021/04/18 05:41:29;;;;;;;27.42;20.00;;;;;;;9.96;83.79;100484.86;2667433;89;21150;-61
2021/04/18 05:45:32;;;;;;;35.25;25.15;;;;;;;10.01;83.87;100484.02;2638275;89;21170;-61
2021/04/18 05:49:35;;;;;;;34.05;25.27;;;;;;;10.09;84.22;100478.98;2625376;89;21208;-60
2021/04/18 05:53:38;;;;;;;32.98;23.05;;;;;;;10.18;83.86;100480.09;2638104;89;21142;-61
2021/04/18 05:57:42;;;;;;;30.02;22.55;;;;;;;10.24;83.08;100489.41;2667511;89;21194;-62
2021/04/18 06:01:46;;;;;;;31.52;23.57;;;;;;;10.25;83.66;100489.27;2656866;89;21152;-62
2021/04/18 06:05:49;;;;;;;29.15;22.02;;;;;;;10.23;82.94;100496.52;2642683;89;21190;-62
2021/04/18 06:09:52;;;;;;;32.95;23.12;;;;;;;10.11;82.54;100492.14;2655850;88;21165;-62
2021/04/18 06:13:56;;;;;;;36.95;21.97;;;;;;;10.01;83.36;100499.97;2635496;88;21166;-61
2021/04/18 06:17:58;;;;;;;37.20;25.00;;;;;;;9.96;83.70;100491.50;2690306;88;21130;-62
2021/04/18 06:22:01;;;;;;;27.25;21.73;;;;;;;9.94;83.88;100498.75;2644382;88;21161;-61
2021/04/18 06:26:04;;;;;;;28.40;18.62;;;;;;;9.99;83.80;100508.08;2655707;88;21127;-61
2021/04/18 06:30:09;;;;;;;30.82;20.08;;;;;;;9.91;82.47;100502.48;2686392;88;21142;-60
2021/04/18 06:34:13;;;;;;;32.83;22.85;;;;;;;9.82;82.52;100508.00;2687406;88;21147;-62
2021/04/18 06:38:16;;;;;;;30.90;21.25;;;;;;;9.71;82.97;100501.34;2651880;87;21192;-61
2021/04/18 06:42:23;;;;;;;38.05;26.20;;;;;;;9.78;83.89;100495.09;2647253;89;21158;-61
2021/04/18 06:46:26;;;;;;;29.60;23.07;;;;;;;9.86;83.63;100494.02;2629971;89;21129;-61
2021/04/18 06:50:31;;;;;;;32.23;23.30;;;;;;;10.00;84.42;100502.27;2653460;89;21150;-61
2021/04/18 06:54:34;;;;;;;33.23;24.27;;;;;;;10.17;84.45;100507.64;2656110;88;21178;-61
2021/04/18 06:58:38;;;;;;;34.08;25.95;;;;;;;10.20;82.32;100507.86;2647741;90;21143;-61
2021/04/18 07:02:41;;;;;;;40.00;25.48;;;;;;;10.15;82.82;100510.40;2614667;89;21138;-62
2021/04/18 07:06:52;;;;;;;27.80;22.05;;;;;;;10.22;82.22;100502.80;2653348;89;21126;-63
2021/04/18 07:11:16;;;;;;;34.85;24.47;;;;;;;10.21;82.75;100512.22;2590211;90;21182;-61
2021/04/18 07:15:41;;;;;;;43.98;28.25;;;;;;;10.27;82.90;100505.12;2657777;89;21189;-62
2021/04/18 07:19:50;;;;;;;34.53;23.00;;;;;;;10.34;82.67;100508.98;2657950;89;21162;-62
2021/04/18 07:23:57;;;;;;;30.15;23.45;;;;;;;10.50;82.50;100507.83;2667515;89;21201;-61
2021/04/18 07:28:14;;;;;;;34.98;24.57;;;;;;;10.45;81.50;100511.34;2999682;77;22632;-60
2021/04/18 07:32:23;;;;;;;34.75;23.62;;;;;;;10.43;82.06;100514.97;2952952;80;21545;-60
2021/04/18 07:36:27;;;;;;;31.97;23.57;;;;;;;10.47;81.45;100519.54;2953985;79;21098;-60
2021/04/18 07:40:33;;;;;;;28.23;22.27;;;;;;;10.43;81.29;100514.10;2953969;80;21137;-60
2021/04/18 07:44:38;;;;;;;33.10;22.22;;;;;;;10.46;81.72;100517.02;2932232;80;21178;-60
2021/04/18 07:48:43;;;;;;;27.95;21.73;;;;;;;10.45;81.68;100515.33;2901539;80;21153;-61
2021/04/18 07:52:49;;;;;;;28.32;22.48;;;;;;;10.38;81.69;100517.58;2899672;81;21161;-62
2021/04/18 07:56:51;;;;;;;30.27;24.63;;;;;;;10.49;81.78;100511.45;2899877;82;21141;-62
2021/04/18 08:00:55;;;;;;;35.63;26.35;;;;;;;10.64;82.30;100512.92;2899315;82;21113;-60
2021/04/18 08:05:00;;;;;;;32.10;23.35;;;;;;;10.68;81.12;100517.49;2901322;82;21133;-61
2021/04/18 08:09:21;;;;;;;28.60;23.27;;;;;;;10.68;81.69;100520.16;2901417;82;21121;-62
2021/04/18 08:13:27;;;;;;;30.85;21.95;;;;;;;10.80;82.84;100517.00;2900684;82;21169;-62
2021/04/18 08:17:30;;;;;;;35.45;24.90;;;;;;;10.96;81.67;100517.48;2898295;80;21121;-62
2021/04/18 08:21:37;;;;;;;32.73;23.52;;;;;;;11.06;81.18;100514.09;2889665;80;21216;-63
2021/04/18 08:26:08;;;;;;;35.58;25.00;;;;;;;11.07;81.17;100513.12;2872945;80;21160;-62
2021/04/18 08:30:14;;;;;;;29.27;22.48;;;;;;;11.21;82.01;100516.86;2887704;81;21129;-61
2021/04/18 08:34:43;;;;;;;31.12;22.73;;;;;;;11.34;80.62;100512.71;2890835;81;21148;-61
2021/04/18 08:39:08;;;;;;;32.50;21.23;;;;;;;11.57;81.65;100511.30;2902916;80;21580;-61
2021/04/18 08:43:21;;;;;;;34.75;22.82;;;;;;;11.69;81.37;100509.44;2915982;80;21178;-61
2021/04/18 08:47:30;;;;;;;35.08;24.92;;;;;;;11.70;79.19;100501.80;2891280;81;21168;-61
2021/04/18 08:51:34;;;;;;;27.02;21.37;;;;;;;11.85;80.64;100499.66;2892999;81;21144;-61
2021/04/18 08:55:42;;;;;;;30.80;23.85;;;;;;;12.03;81.28;100500.45;2895565;82;21599;-61
2021/04/18 08:59:56;;;;;;;40.05;31.65;;;;;;;12.29;81.02;100499.56;2896164;82;21113;-61
2021/04/18 09:04:02;;;;;;;33.60;25.50;;;;;;;12.65;80.70;100496.02;2879424;82;21188;-61
2021/04/18 09:08:09;;;;;;;31.87;23.30;;;;;;;12.96;80.61;100502.64;2884675;82;21542;-61
2021/04/18 09:12:15;;;;;;;27.27;22.32;;;;;;;13.27;79.55;100503.92;2888419;82;21121;-61
2021/04/18 09:16:33;;;;;;;28.02;20.77;;;;;;;13.50;77.50;100488.17;2903845;80;21161;-61
2021/04/18 09:20:36;;;;;;;28.73;21.42;;;;;;;13.58;76.48;100494.15;2891002;82;21157;-61
2021/04/18 09:24:46;;;;;;;30.68;23.35;;;;;;;13.76;77.08;100500.48;2868313;82;21206;-61
2021/04/18 09:29:12;;;;;;;33.53;26.15;;;;;;;13.92;76.17;100498.55;2862910;82;21151;-61
2021/04/18 09:33:15;;;;;;;25.07;21.30;;;;;;;14.02;75.02;100505.70;2875683;82;21174;-61
2021/04/18 09:37:28;;;;;;;33.33;24.37;;;;;;;13.68;73.91;100505.19;2871163;82;21559;-61
2021/04/18 09:41:36;;;;;;;28.92;24.92;;;;;;;13.58;75.22;100504.33;2837154;83;21174;-61
2021/04/18 09:45:39;;;;;;;28.67;21.62;;;;;;;13.67;75.18;100502.64;2811693;84;21168;-61
2021/04/18 09:50:00;;;;;;;31.93;22.65;;;;;;;13.66;74.86;100508.50;2849637;83;21140;-61
2021/04/18 09:54:05;;;;;;;32.10;23.10;;;;;;;13.82;75.47;100501.24;2831518;84;21133;-61
2021/04/18 09:58:08;;;;;;;30.20;21.97;;;;;;;13.93;74.83;100513.61;2853913;83;21184;-61
2021/04/18 10:02:14;;;;;;;28.50;21.50;;;;;;;14.07;74.10;100510.98;2832858;84;21197;-61
2021/04/18 10:06:19;;;;;;;31.15;23.05;;;;;;;14.27;75.12;100517.64;2853879;83;21602;-61
2021/04/18 10:10:32;;;;;;;30.72;25.95;;;;;;;14.56;72.97;100518.06;2832798;84;21172;-61
2021/04/18 10:14:39;;;;;;;30.85;25.92;;;;;;;14.69;72.14;100519.07;2832778;84;21595;-61
2021/04/18 10:19:10;;;;;;;33.65;24.45;;;;;;;14.64;71.29;100512.81;2833039;84;21200;-61
2021/04/18 10:23:14;;;;;;;26.73;21.60;;;;;;;14.66;72.96;100508.15;2827576;84;21165;-61
2021/04/18 10:27:26;;;;;;;26.93;20.90;;;;;;;14.79;70.62;100509.17;2825673;84;21145;-61
2021/04/18 10:31:33;;;;;;;32.90;23.50;;;;;;;15.28;71.52;100510.24;2818788;82;21159;-61
2021/04/18 10:35:35;;;;;;;27.00;20.85;;;;;;;15.61;69.77;100500.85;2813705;82;21192;-61
2021/04/18 10:39:38;;;;;;;36.40;30.43;;;;;;;15.60;68.60;100492.47;2813395;84;21132;-61
2021/04/18 10:43:41;;;;;;;26.85;21.60;;;;;;;15.72;69.20;100496.58;2813781;84;21619;-62
2021/04/18 10:47:45;;;;;;;27.70;19.50;;;;;;;16.02;67.52;100497.20;2813702;84;21713;-62
2021/04/18 10:51:50;;;;;;;37.33;24.63;;;;;;;16.29;65.62;100496.69;2773718;84;21599;-60
2021/04/18 10:55:53;;;;;;;28.57;22.20;;;;;;;16.40;65.23;100497.78;2773651;85;21495;-61
2021/04/18 10:59:56;;;;;;;26.12;20.37;;;;;;;16.49;64.21;100495.13;2773620;85;21221;-63
2021/04/18 11:03:59;;;;;;;29.98;19.85;;;;;;;16.42;64.41;100494.44;2788457;84;21154;-61
2021/04/18 11:08:04;;;;;;;22.13;18.35;;;;;;;16.27;63.88;100493.33;2818933;84;21651;-62
2021/04/18 11:12:19;;;;;;;27.22;18.55;;;;;;;16.08;64.03;100497.90;2820478;84;21181;-63
2021/04/18 11:16:23;;;;;;;58.30;38.95;;;;;;;15.99;65.21;100497.00;2820677;84;21165;-62
2021/04/18 11:20:26;;;;;;;27.32;20.17;;;;;;;16.03;65.09;100495.37;2820674;84;21197;-62
2021/04/18 11:24:30;;;;;;;31.75;21.10;;;;;;;15.92;64.36;100491.09;2820078;84;21094;-61
2021/04/18 11:28:33;;;;;;;29.75;21.57;;;;;;;16.05;64.34;100493.37;2821306;83;21145;-61
2021/04/18 11:32:39;;;;;;;27.73;21.40;;;;;;;16.13;64.00;100487.56;2858110;83;21155;-63
2021/04/18 11:36:44;;;;;;;26.23;20.43;;;;;;;16.16;63.66;100482.36;2816994;84;21531;-63
2021/04/18 11:40:47;;;;;;;43.10;31.77;;;;;;;16.30;63.88;100490.32;2838924;83;21152;-63
2021/04/18 11:44:50;;;;;;;27.25;21.27;;;;;;;16.47;63.82;100495.79;2816313;83;21290;-63
2021/04/18 11:48:56;;;;;;;27.48;21.80;;;;;;;16.44;63.59;100495.63;2837329;81;21171;-62
2021/04/18 11:52:59;;;;;;;27.37;21.35;;;;;;;16.54;64.52;100490.97;2816144;83;21173;-63
2021/04/18 11:57:03;;;;;;;25.60;19.57;;;;;;;16.78;63.94;100493.94;2833882;83;21152;-63
2021/04/18 12:01:07;;;;;;;27.17;20.48;;;;;;;16.51;61.53;100489.13;2817649;84;21161;-62
2021/04/18 12:05:13;;;;;;;35.13;23.00;;;;;;;16.32;61.56;100492.86;2835141;82;21143;-63
2021/04/18 12:09:16;;;;;;;26.70;21.90;;;;;;;16.17;62.04;100488.58;2777092;84;21169;-60
2021/04/18 12:13:19;;;;;;;28.42;24.85;;;;;;;15.78;62.38;100487.94;2810230;84;21604;-60
2021/04/18 12:17:22;;;;;;;33.75;26.55;;;;;;;15.33;64.17;100492.86;2809854;84;21157;-60
2021/04/18 12:21:26;;;;;;;36.13;27.42;;;;;;;14.99;64.79;100499.22;2809933;84;21128;-62
2021/04/18 12:25:29;;;;;;;32.25;24.43;;;;;;;14.69;66.37;100497.14;2809833;84;21615;-62
2021/04/18 12:29:32;;;;;;;41.37;31.95;;;;;;;14.68;67.27;100494.63;2814961;84;21180;-61
2021/04/18 12:33:37;;;;;;;36.13;29.23;;;;;;;14.61;68.56;100486.81;2815091;82;21172;-61
2021/04/18 12:37:42;;;;;;;40.75;30.12;;;;;;;14.62;67.78;100493.38;2861665;82;21134;-61
2021/04/18 12:41:45;;;;;;;36.70;27.93;;;;;;;14.54;67.25;100493.25;2861816;83;21187;-61
2021/04/18 12:45:48;;;;;;;65.92;45.80;;;;;;;14.59;67.72;100492.34;2863043;81;21599;-62
2021/04/18 12:49:52;;;;;;;40.03;28.85;;;;;;;14.74;66.75;100491.86;2867717;82;21188;-61
2021/04/18 12:53:56;;;;;;;26.42;21.23;;;;;;;14.89;66.79;100494.91;2892180;82;21305;-62
2021/04/18 12:57:59;;;;;;;29.12;24.43;;;;;;;15.14;66.79;100490.69;2893098;81;21148;-60
2021/04/18 13:02:02;;;;;;;33.02;24.60;;;;;;;15.22;65.17;100481.86;2893102;82;21141;-61
2021/04/18 13:06:06;;;;;;;32.17;23.38;;;;;;;15.27;65.15;100483.09;2884246;82;21114;-61
2021/04/18 13:10:12;;;;;;;30.72;23.87;;;;;;;15.50;64.99;100473.78;2861129;83;21165;-60
2021/04/18 13:14:15;;;;;;;45.52;30.95;;;;;;;15.63;63.80;100480.09;2861318;82;21138;-61
2021/04/18 13:18:18;;;;;;;65.05;39.25;;;;;;;15.55;63.96;100483.05;2891565;81;21137;-61
2021/04/18 13:22:22;;;;;;;44.35;31.65;;;;;;;15.36;65.10;100488.56;2862467;83;21133;-61
2021/04/18 13:26:26;;;;;;;41.18;30.27;;;;;;;15.05;64.75;100489.75;2863610;82;21587;-60
2021/04/18 13:30:29;;;;;;;34.88;25.75;;;;;;;14.74;65.24;100490.52;2890558;82;21572;-60
2021/04/18 13:34:33;;;;;;;41.37;29.45;;;;;;;14.54;65.86;100491.91;2892455;81;21622;-60
2021/04/18 13:38:37;;;;;;;35.65;25.50;;;;;;;14.42;66.31;100487.23;2892655;81;21141;-61
2021/04/18 13:42:41;;;;;;;32.70;26.35;;;;;;;14.40;66.89;100488.73;2850794;82;21143;-62
2021/04/18 13:46:46;;;;;;;31.85;25.10;;;;;;;14.40;66.71;100490.56;2888329;82;21118;-61
2021/04/18 13:50:50;;;;;;;37.05;27.25;;;;;;;14.33;66.52;100493.48;2891442;80;21137;-61
2021/04/18 13:54:53;;;;;;;38.33;25.70;;;;;;;14.31;66.95;100489.59;2889834;81;21157;-61
2021/04/18 13:58:56;;;;;;;38.35;29.02;;;;;;;14.30;66.71;100485.23;2862532;83;21155;-61
2021/04/18 14:03:00;;;;;;;36.20;26.48;;;;;;;14.27;67.03;100486.87;2892180;82;21137;-62
2021/04/18 14:07:05;;;;;;;36.05;26.80;;;;;;;14.27;66.27;100486.39;2861862;83;21143;-61
2021/04/18 14:11:09;;;;;;;33.55;25.27;;;;;;;14.22;65.93;100485.95;2865735;82;21129;-61
2021/04/18 14:15:14;;;;;;;34.67;27.48;;;;;;;14.20;65.81;100487.11;2858876;83;21124;-59
2021/04/18 14:19:17;;;;;;;40.45;26.60;;;;;;;14.22;65.10;100491.31;2859360;83;21116;-62
2021/04/18 14:23:20;;;;;;;32.38;22.07;;;;;;;14.27;66.34;100486.87;2859109;81;21155;-61
2021/04/18 14:27:24;;;;;;;34.85;25.75;;;;;;;14.33;65.89;100487.61;2839671;81;21211;-60
2021/04/18 14:31:27;;;;;;;38.65;27.48;;;;;;;14.34;65.40;100490.64;2820632;82;21136;-61
2021/04/18 14:35:30;;;;;;;38.78;27.20;;;;;;;14.40;65.98;100483.86;2821298;84;21152;-61
2021/04/18 14:39:34;;;;;;;42.62;27.90;;;;;;;14.45;65.61;100495.48;2858634;82;21176;-62
2021/04/18 14:43:37;;;;;;;46.83;27.42;;;;;;;14.47;65.50;100489.00;2903452;80;22255;-61
2021/04/18 14:47:41;;;;;;;45.08;30.50;;;;;;;14.52;65.78;100489.88;2905130;81;21172;-61
2021/04/18 14:51:44;;;;;;;84.15;43.33;;;;;;;14.51;65.95;100492.20;2864503;81;21140;-62
2021/04/18 14:55:49;;;;;;;54.65;33.33;;;;;;;14.47;66.07;100491.68;2855471;83;21160;-62
2021/04/18 14:59:52;;;;;;;101.70;56.68;;;;;;;14.46;65.99;100491.81;2855401;83;21144;-61
2021/04/18 15:03:55;;;;;;;41.85;28.23;;;;;;;14.40;66.03;100493.23;2855204;83;21172;-61
2021/04/18 15:07:59;;;;;;;31.85;23.60;;;;;;;14.31;66.24;100495.45;2855200;83;21475;-61
2021/04/18 15:12:04;;;;;;;33.30;25.70;;;;;;;14.17;66.21;100501.61;2855219;82;21119;-61
2021/04/18 15:16:07;;;;;;;30.43;23.47;;;;;;;13.99;67.18;100493.48;2855209;82;21519;-62
2021/04/18 15:20:13;;;;;;;34.90;23.52;;;;;;;13.87;68.34;100499.97;2855107;83;21087;-61
2021/04/18 15:24:20;;;;;;;39.18;27.37;;;;;;;13.75;68.64;100504.11;2855147;82;21191;-60
2021/04/18 15:28:23;;;;;;;210.65;91.75;;;;;;;13.54;70.01;100502.93;2855037;83;21432;-60
2021/04/18 15:32:28;;;;;;;255.45;115.52;;;;;;;13.25;71.26;100504.55;2854939;83;21127;-60
2021/04/18 15:36:35;;;;;;;225.40;104.17;;;;;;;13.16;72.87;100505.36;2855233;83;21597;-61
2021/04/18 15:40:39;;;;;;;111.28;52.73;;;;;;;13.14;73.89;100500.65;2863610;82;21135;-61
2021/04/18 15:44:42;;;;;;;211.12;110.30;;;;;;;13.13;74.45;100502.50;2879880;82;21136;-62
2021/04/18 15:48:47;;;;;;;142.20;76.53;;;;;;;13.17;74.97;100504.89;2891589;81;21133;-61
2021/04/18 15:52:50;;;;;;;72.15;41.00;;;;;;;13.26;75.12;100506.23;2912410;80;21125;-60
2021/04/18 15:56:53;;;;;;;33.70;24.60;;;;;;;13.31;74.46;100505.83;2903442;81;21146;-61
2021/04/18 16:00:56;;;;;;;34.88;24.75;;;;;;;13.31;74.05;100511.17;2903768;81;21154;-61
2021/04/18 16:04:59;;;;;;;61.95;43.63;;;;;;;13.29;74.17;100511.30;2903409;81;21136;-62
2021/04/18 16:09:05;;;;;;;64.25;41.20;;;;;;;13.30;74.68;100512.16;2905093;82;21652;-61
2021/04/18 16:13:08;;;;;;;62.60;41.53;;;;;;;13.34;74.68;100508.70;2897066;81;21137;-61
2021/04/18 16:17:13;;;;;;;48.48;36.68;;;;;;;13.39;74.98;100513.16;2905031;82;21129;-61
2021/04/18 16:21:16;;;;;;;37.90;24.18;;;;;;;13.38;74.65;100518.16;2905003;80;21176;-61
2021/04/18 16:25:20;;;;;;;81.80;46.13;;;;;;;13.41;74.70;100512.52;2903653;81;21638;-61
2021/04/18 16:29:23;;;;;;;74.40;45.70;;;;;;;13.42;73.95;100522.23;2899959;81;21134;-61
2021/04/18 16:33:26;;;;;;;52.53;34.20;;;;;;;13.39;73.90;100515.33;2898775;82;21157;-60
2021/04/18 16:37:29;;;;;;;67.78;42.35;;;;;;;13.41;73.92;100517.88;2899583;81;21169;-61
2021/04/18 16:41:32;;;;;;;52.43;37.30;;;;;;;13.40;73.82;100522.36;2889983;81;21136;-60
2021/04/18 16:45:37;;;;;;;56.33;38.30;;;;;;;13.48;73.65;100532.38;2892443;82;21622;-61
2021/04/18 16:49:41;;;;;;;55.33;34.63;;;;;;;13.61;73.39;100529.44;2899284;82;21360;-61
2021/04/18 16:53:46;;;;;;;38.70;28.17;;;;;;;13.66;73.22;100535.70;2900214;80;21108;-60
2021/04/18 16:57:50;;;;;;;48.70;33.65;;;;;;;13.73;73.43;100541.34;2899916;82;21196;-60
2021/04/18 17:01:53;;;;;;;45.92;31.52;;;;;;;13.78;73.31;100538.61;2897643;80;21161;-62
2021/04/18 17:05:58;;;;;;;43.80;29.67;;;;;;;13.80;72.78;100544.66;2890559;80;21122;-60
2021/04/18 17:10:01;;;;;;;42.78;29.72;;;;;;;13.70;72.74;100559.36;2889132;82;21604;-60
2021/04/18 17:14:04;;;;;;;44.40;31.15;;;;;;;13.56;72.56;100553.08;2857930;83;21196;-61
2021/04/18 17:18:08;;;;;;;43.05;31.10;;;;;;;13.45;72.46;100553.19;2904999;80;21698;-60
2021/04/18 17:22:16;;;;;;;41.45;28.15;;;;;;;13.39;72.15;100557.24;2898580;82;21165;-60
2021/04/18 17:26:20;;;;;;;32.17;24.15;;;;;;;13.35;72.30;100561.15;2896557;81;21158;-61
2021/04/18 17:30:25;;;;;;;37.75;27.17;;;;;;;13.35;72.26;100563.82;2897024;81;21647;-61
2021/04/18 17:34:29;;;;;;;33.53;25.72;;;;;;;13.35;72.48;100567.83;2899234;82;21089;-60
2021/04/18 17:38:33;;;;;;;42.33;30.50;;;;;;;13.31;72.06;100561.08;2897314;80;21161;-60
2021/04/18 17:42:37;;;;;;;36.90;27.58;;;;;;;13.21;71.91;100579.27;2896652;81;21435;-61
2021/04/18 17:46:41;;;;;;;39.73;29.52;;;;;;;13.00;71.77;100578.85;2899123;80;21137;-61
2021/04/18 17:50:46;;;;;;;49.00;34.78;;;;;;;12.67;72.77;100582.13;2899030;82;21165;-60
2021/04/18 17:54:51;;;;;;;67.20;45.37;;;;;;;12.38;74.02;100584.16;2899686;82;21145;-60
2021/04/18 17:58:54;;;;;;;68.10;46.70;;;;;;;12.21;74.69;100584.73;2898841;81;21153;-61
2021/04/18 18:02:57;;;;;;;63.98;46.80;;;;;;;12.23;74.67;100582.77;2899030;82;21567;-61
2021/04/18 18:07:01;;;;;;;83.50;49.65;;;;;;;12.25;74.45;100586.16;2899106;81;21627;-61
2021/04/18 18:11:07;;;;;;;66.40;44.67;;;;;;;12.27;74.13;100590.88;2897786;81;21155;-61
2021/04/18 18:15:34;;;;;;;76.07;51.20;;;;;;;12.23;73.62;100593.44;2841590;83;21636;-59
2021/04/18 18:19:37;;;;;;;;;;;;;;;12.16;73.44;100596.25;2863519;83;21173;-60
2021/04/18 18:23:41;;;;;;;51.70;35.28;;;;;;;12.04;73.45;100594.13;2840236;82;20157;-60
2021/04/18 18:27:45;;;;;;;73.22;48.92;;;;;;;11.94;73.68;100602.87;2829872;83;21582;-61
2021/04/18 18:31:48;;;;;;;72.03;46.83;;;;;;;11.86;74.00;100606.16;2854541;83;21194;-61
2021/04/18 18:35:52;;;;;;;49.95;34.83;;;;;;;11.80;74.21;100612.01;2854480;83;21172;-62